Time;durP1;ratioP1;P1;durP2;ratioP2;P2;SDS_P1;SDS_P2;PMS_P1;PMS_P2;Temp;Humidity;BMP_temperature;BMP_pressure;BME280_temperature;BME280_humidity;BME280_pressure;Samples;Min_cycle;Max_cycle;Signal;HPM_P1;HPM_P2
2023/10/06 00:01:31;;;;;;;1.77;1.67;;;14.20;99.90;;;;;;5089512;28;20173;-87
2023/10/06 00:03:59;;;;;;;1.77;1.67;;;14.30;99.90;;;;;;5105244;28;20563;-84
2023/10/06 00:06:27;;;;;;;1.73;1.63;;;14.30;99.90;;;;;;5088755;28;20099;-90
2023/10/06 00:08:59;;;;;;;1.63;1.52;;;14.20;99.90;;;;;;5091829;28;20103;-92
2023/10/06 00:11:31;;;;;;;1.85;1.75;;;14.40;99.90;;;;;;5073689;27;20039;-88
2023/10/06 00:14:01;;;;;;;1.75;1.65;;;14.40;99.90;;;;;;5094217;28;20039;-90
2023/10/06 00:16:38;;;;;;;1.70;1.60;;;14.30;99.90;;;;;;5077022;28;20046;-93
2023/10/06 00:22:18;;;;;;;1.88;1.77;;;14.30;99.90;;;;;;5068649;28;20057;-87
2023/10/06 00:25:02;;;;;;;;;;;;;;;;;;;;;
2023/10/06 00:27:37;;;;;;;2.30;2.20;;;14.10;99.90;;;;;;5093208;28;20043;-89
2023/10/06 00:30:11;;;;;;;2.40;2.30;;;14.20;99.90;;;;;;5069667;28;20055;-84
2023/10/06 00:32:37;;;;;;;2.28;2.17;;;14.10;99.90;;;;;;5091296;28;20052;-86
2023/10/06 00:35:14;;;;;;;2.10;2.00;;;14.10;99.90;;;;;;5074123;28;20050;-90
2023/10/06 00:37:41;;;;;;;1.80;1.70;;;14.20;99.90;;;;;;5065150;28;20039;-88
2023/10/06 00:40:19;;;;;;;1.83;1.73;;;14.20;99.90;;;;;;5089603;28;20513;-90
2023/10/06 00:43:05;;;;;;;1.80;1.70;;;14.20;99.90;;;;;;5086725;28;20062;-92
2023/10/06 00:45:31;;;;;;;1.80;1.70;;;14.20;99.90;;;;;;5086524;28;20051;-89
2023/10/06 00:47:56;;;;;;;1.77;1.67;;;14.00;99.90;;;;;;5084603;28;20040;-89
2023/10/06 00:50:24;;;;;;;1.92;1.83;;;14.10;99.90;;;;;;5085154;28;20043;-89
2023/10/06 00:52:51;;;;;;;1.90;1.80;;;14.10;99.90;;;;;;5089066;28;20377;-88
2023/10/06 00:55:18;;;;;;;1.90;1.80;;;14.00;99.90;;;;;;5082000;27;20080;-89
2023/10/06 00:57:52;;;;;;;1.83;1.73;;;14.10;99.90;;;;;;5085938;28;20555;-90
2023/10/06 01:00:22;;;;;;;1.90;1.80;;;14.00;99.90;;;;;;5090465;27;20067;-87
2023/10/06 01:03:14;;;;;;;2.10;2.00;;;14.00;99.90;;;;;;5104892;27;20464;-90
2023/10/06 01:05:48;;;;;;;1.80;1.70;;;14.00;99.90;;;;;;5100581;27;20047;-90
2023/10/06 01:08:15;;;;;;;1.77;1.67;;;14.00;99.90;;;;;;5092452;28;20035;-89
2023/10/06 01:10:41;;;;;;;1.80;1.70;;;14.00;99.90;;;;;;5101266;27;20043;-93
2023/10/06 01:13:12;;;;;;;1.73;1.63;;;14.10;99.90;;;;;;5103710;27;20043;-90
2023/10/06 01:15:55;;;;;;;2.00;1.90;;;14.00;99.90;;;;;;5090185;27;20138;-88
2023/10/06 01:18:25;;;;;;;1.98;1.88;;;13.90;99.90;;;;;;5101973;27;20036;-87
2023/10/06 01:20:51;;;;;;;2.00;1.90;;;13.80;99.90;;;;;;5088679;27;20055;-87
2023/10/06 01:23:21;;;;;;;1.95;1.85;;;13.90;99.90;;;;;;5106874;27;20032;-85
2023/10/06 01:25:54;;;;;;;1.90;1.80;;;13.90;99.90;;;;;;5079846;28;20043;-89
2023/10/06 01:28:23;;;;;;;1.77;1.67;;;13.90;99.90;;;;;;5081524;28;20112;-91
2023/10/06 01:30:50;;;;;;;3.17;2.97;;;13.90;99.90;;;;;;5116761;27;20096;-88
2023/10/06 01:33:18;;;;;;;1.90;1.80;;;13.80;99.90;;;;;;5103010;27;20043;-92
2023/10/06 01:35:54;;;;;;;1.95;1.85;;;13.80;99.90;;;;;;5102413;27;20054;-90
2023/10/06 01:38:23;;;;;;;1.98;1.88;;;14.00;99.90;;;;;;5098944;27;20461;-88
2023/10/06 01:40:53;;;;;;;1.90;1.80;;;13.90;99.90;;;;;;5080648;27;20051;-86
2023/10/06 01:43:22;;;;;;;1.77;1.67;;;13.90;99.90;;;;;;5087676;27;20043;-88
2023/10/06 01:45:51;;;;;;;1.77;1.67;;;13.90;99.90;;;;;;5099157;27;20036;-88
2023/10/06 01:50:48;;;;;;;1.77;1.67;;;13.80;99.90;;;;;;5102952;27;20039;-86
2023/10/06 01:53:18;;;;;;;1.73;1.63;;;14.00;99.90;;;;;;5067564;28;20082;-91
2023/10/06 01:56:01;;;;;;;1.77;1.67;;;13.90;99.90;;;;;;5081916;27;20051;-87
2023/10/06 01:58:27;;;;;;;1.77;1.67;;;13.90;99.90;;;;;;5068605;28;20044;-89
2023/10/06 02:00:55;;;;;;;1.77;1.67;;;14.00;99.90;;;;;;5072249;28;20047;-90
2023/10/06 02:03:22;;;;;;;1.77;1.67;;;14.00;99.90;;;;;;5070905;27;20547;-85
2023/10/06 02:05:48;;;;;;;1.77;1.67;;;13.90;99.90;;;;;;5083652;28;20047;-90
2023/10/06 02:08:23;;;;;;;1.88;1.77;;;13.90;99.90;;;;;;5070739;28;20065;-88
2023/10/06 02:10:52;;;;;;;1.70;1.60;;;13.90;99.90;;;;;;5069480;28;20078;-89
2023/10/06 02:13:21;;;;;;;1.75;1.65;;;14.00;99.90;;;;;;5088600;28;20077;-90
2023/10/06 02:15:56;;;;;;;1.65;1.55;;;13.80;99.90;;;;;;5068409;28;20523;-90
2023/10/06 02:18:25;;;;;;;1.70;1.60;;;13.90;99.90;;;;;;5108637;27;20446;-93
2023/10/06 02:20:55;;;;;;;1.75;1.65;;;13.90;99.90;;;;;;5085663;28;20047;-87
2023/10/06 02:23:21;;;;;;;1.77;1.67;;;13.90;99.90;;;;;;5108145;27;20120;-89
2023/10/06 02:25:50;;;;;;;1.65;1.55;;;14.00;99.90;;;;;;5087360;28;20578;-90
2023/10/06 02:28:15;;;;;;;1.73;1.63;;;14.00;99.90;;;;;;5109505;27;20047;-88
2023/10/06 02:30:49;;;;;;;1.67;1.58;;;13.90;99.90;;;;;;5089766;27;20043;-84
2023/10/06 02:33:15;;;;;;;;;;;13.90;99.90;;;;;;5107110;27;20056;-88
2023/10/06 02:35:44;;;;;;;1.60;1.50;;;14.00;99.90;;;;;;5096788;27;19931;-89
2023/10/06 02:38:10;;;;;;;1.73;1.63;;;14.00;99.90;;;;;;5082521;28;20040;-87
2023/10/06 02:40:44;;;;;;;1.63;1.52;;;14.00;99.90;;;;;;5106782;27;20091;-88
2023/10/06 02:43:17;;;;;;;1.73;1.63;;;14.00;99.90;;;;;;5115282;27;20512;-92
2023/10/06 02:45:43;;;;;;;1.73;1.63;;;14.10;99.90;;;;;;5088640;27;20545;-90
2023/10/06 02:48:16;;;;;;;1.77;1.67;;;14.20;99.90;;;;;;5110333;27;20035;-89
2023/10/06 02:50:45;;;;;;;1.67;1.58;;;14.10;99.90;;;;;;5111314;27;20043;-89
2023/10/06 02:53:14;;;;;;;1.67;1.58;;;14.10;99.90;;;;;;5104395;27;20128;-88
2023/10/06 02:55:55;;;;;;;1.77;1.67;;;14.20;99.90;;;;;;5098023;27;20050;-87
2023/10/06 02:58:27;;;;;;;1.77;1.67;;;14.30;99.90;;;;;;5096279;27;20082;-90
2023/10/06 03:00:55;;;;;;;1.77;1.67;;;14.10;99.90;;;;;;5108582;27;20118;-89
2023/10/06 03:03:27;;;;;;;1.85;1.75;;;14.20;99.90;;;;;;5093864;27;20043;-90
2023/10/06 03:05:56;;;;;;;1.92;1.83;;;14.20;99.90;;;;;;5101078;27;20450;-92
2023/10/06 03:08:27;;;;;;;1.77;1.67;;;14.20;99.90;;;;;;5092463;27;20039;-90
2023/10/06 03:10:56;;;;;;;1.92;1.83;;;14.20;99.90;;;;;;5102235;27;20039;-88
2023/10/06 03:13:43;;;;;;;1.85;1.75;;;14.20;99.90;;;;;;5106735;27;20074;-89
2023/10/06 03:16:12;;;;;;;1.77;1.67;;;14.20;99.90;;;;;;5085688;28;20055;-93
2023/10/06 03:18:43;;;;;;;1.88;1.77;;;14.30;99.90;;;;;;5096547;28;20054;-87
2023/10/06 03:23:38;;;;;;;1.85;1.75;;;14.20;99.90;;;;;;5102158;27;20051;-90
2023/10/06 03:26:45;;;;;;;1.90;1.80;;;14.20;99.90;;;;;;5108471;28;20070;-88
2023/10/06 03:29:02;;;;;;;;;;;14.10;99.90;;;;;;5101652;28;20141;-91
2023/10/06 03:34:33;;;;;;;1.75;1.65;;;14.10;99.90;;;;;;5109237;28;20067;-90
2023/10/06 03:37:02;;;;;;;1.75;1.65;;;14.10;99.90;;;;;;5103387;28;20048;-92
2023/10/06 03:39:38;;;;;;;1.70;1.60;;;14.00;99.90;;;;;;5102290;28;20081;-93
2023/10/06 03:42:10;;;;;;;1.90;1.80;;;13.90;99.90;;;;;;5106060;28;20040;-83
2023/10/06 03:44:39;;;;;;;2.08;1.98;;;13.90;99.90;;;;;;5096763;28;20081;-87
2023/10/06 03:47:08;;;;;;;1.70;1.60;;;14.00;99.90;;;;;;5109884;28;20077;-90
2023/10/06 03:49:35;;;;;;;2.22;2.13;;;14.00;99.90;;;;;;5109213;28;20484;-89
2023/10/06 03:52:09;;;;;;;1.92;1.83;;;14.00;99.90;;;;;;5079838;28;20043;-94
2023/10/06 03:54:37;;;;;;;1.98;1.88;;;13.80;99.90;;;;;;5096767;28;20051;-88
2023/10/06 03:57:04;;;;;;;2.15;2.05;;;13.80;99.90;;;;;;5095192;28;20822;-92
2023/10/06 03:59:30;;;;;;;2.13;2.03;;;13.80;99.90;;;;;;5081574;28;20039;-90
2023/10/06 04:01:55;;;;;;;1.70;1.60;;;13.90;99.90;;;;;;5081560;28;20040;-88
2023/10/06 04:04:26;;;;;;;1.70;1.60;;;14.00;99.90;;;;;;5065248;28;20716;-85
2023/10/06 04:06:56;;;;;;;1.67;1.58;;;14.00;99.90;;;;;;5082672;28;20043;-86
2023/10/06 04:09:27;;;;;;;1.85;1.75;;;13.90;99.90;;;;;;5083863;28;20047;-89
2023/10/06 04:11:54;;;;;;;1.80;1.70;;;14.00;99.90;;;;;;5082555;28;20051;-87
2023/10/06 04:14:20;;;;;;;1.70;1.60;;;14.10;99.90;;;;;;5081273;28;20047;-84
2023/10/06 04:16:46;;;;;;;1.67;1.58;;;14.00;99.90;;;;;;5066273;28;20050;-93
2023/10/06 04:19:16;;;;;;;1.77;1.67;;;14.00;99.90;;;;;;5072896;28;20052;-87
2023/10/06 04:21:43;;;;;;;1.70;1.60;;;13.90;99.90;;;;;;5086377;28;20531;-87
2023/10/06 04:24:09;;;;;;;1.60;1.50;;;13.80;99.90;;;;;;5090408;28;20056;-90
2023/10/06 04:26:45;;;;;;;1.95;1.85;;;14.00;99.90;;;;;;5074077;28;20670;-88
2023/10/06 04:29:13;;;;;;;1.75;1.65;;;13.90;99.90;;;;;;5074390;28;20061;-90
2023/10/06 04:31:38;;;;;;;1.80;1.70;;;13.70;99.90;;;;;;5069984;27;20063;-83
2023/10/06 04:34:07;;;;;;;1.70;1.60;;;13.70;99.90;;;;;;5071829;28;20756;-87
2023/10/06 04:36:37;;;;;;;1.88;1.77;;;13.80;99.90;;;;;;5072140;28;20670;-91
2023/10/06 04:39:09;;;;;;;1.70;1.60;;;13.80;99.90;;;;;;5070749;28;20043;-87
2023/10/06 04:41:41;;;;;;;1.90;1.80;;;13.80;99.90;;;;;;5067480;28;20105;-93
2023/10/06 04:44:07;;;;;;;2.20;2.10;;;13.90;99.90;;;;;;5069579;28;20479;-92
2023/10/06 04:46:35;;;;;;;2.08;1.98;;;13.70;99.90;;;;;;5089587;28;20119;-88
2023/10/06 04:49:04;;;;;;;1.80;1.70;;;13.80;99.90;;;;;;5072966;28;20150;-90
2023/10/06 04:51:34;;;;;;;1.95;1.85;;;13.80;99.90;;;;;;5072300;28;20493;-91
2023/10/06 04:54:00;;;;;;;1.88;1.77;;;13.70;99.90;;;;;;5069088;28;20052;-91
2023/10/06 04:56:32;;;;;;;1.80;1.70;;;13.60;99.90;;;;;;5084861;28;20047;-88
2023/10/06 04:59:00;;;;;;;1.80;1.70;;;13.70;99.90;;;;;;5064106;28;20626;-94
2023/10/06 05:01:30;;;;;;;1.80;1.70;;;13.50;99.90;;;;;;5087609;28;20036;-85
2023/10/06 05:03:56;;;;;;;1.80;1.70;;;13.60;99.90;;;;;;5067653;28;20488;-89
2023/10/06 05:06:22;;;;;;;1.80;1.70;;;13.50;99.90;;;;;;5070594;28;20055;-90
2023/10/06 05:08:47;;;;;;;2.00;1.90;;;13.60;99.90;;;;;;5085537;28;20737;-93
2023/10/06 05:11:14;;;;;;;1.95;1.85;;;13.50;99.90;;;;;;5088746;28;20059;-85
2023/10/06 05:13:40;;;;;;;2.00;1.90;;;13.50;99.90;;;;;;5086038;28;20039;-88
2023/10/06 05:16:06;;;;;;;2.15;2.05;;;13.40;99.90;;;;;;5091568;28;20036;-89
2023/10/06 05:18:33;;;;;;;2.00;1.90;;;13.40;99.90;;;;;;5086950;28;20112;-87
2023/10/06 05:21:01;;;;;;;2.10;2.00;;;13.40;99.90;;;;;;5072990;28;20055;-89
2023/10/06 05:23:27;;;;;;;2.00;1.90;;;13.50;99.90;;;;;;5085139;28;20036;-89
2023/10/06 05:25:56;;;;;;;2.10;2.00;;;13.50;99.90;;;;;;5071532;28;20358;-86
2023/10/06 05:28:22;;;;;;;2.20;2.10;;;13.40;99.90;;;;;;5068245;28;20078;-88
2023/10/06 05:30:51;;;;;;;2.10;2.00;;;13.50;99.90;;;;;;5084804;28;20069;-86
2023/10/06 05:33:17;;;;;;;2.20;2.10;;;13.30;99.90;;;;;;5082899;27;20050;-88
2023/10/06 05:35:46;;;;;;;2.30;2.20;;;13.40;99.90;;;;;;5089673;28;20146;-91
2023/10/06 05:38:14;;;;;;;2.28;2.17;;;13.40;99.90;;;;;;5072116;28;20040;-88
2023/10/06 05:40:44;;;;;;;2.40;2.30;;;13.30;99.90;;;;;;5090048;28;21143;-93
2023/10/06 05:43:15;;;;;;;2.22;2.13;;;13.40;99.90;;;;;;5067963;28;20070;-94
2023/10/06 05:45:49;;;;;;;2.25;2.15;;;13.30;99.90;;;;;;5074222;28;20043;-88
2023/10/06 05:48:22;;;;;;;2.28;2.17;;;13.50;99.90;;;;;;5072725;28;20686;-90
2023/10/06 05:51:01;;;;;;;2.20;2.10;;;13.30;99.90;;;;;;5091706;28;20431;-88
2023/10/06 05:53:30;;;;;;;2.30;2.20;;;13.50;99.90;;;;;;5075572;28;20051;-88
2023/10/06 05:55:58;;;;;;;2.35;2.25;;;13.60;99.90;;;;;;5075174;28;20052;-88
2023/10/06 05:58:37;;;;;;;2.33;2.22;;;13.70;99.90;;;;;;5071944;28;20060;-92
2023/10/06 06:01:14;;;;;;;2.28;2.17;;;13.60;99.90;;;;;;5090458;28;20066;-84
2023/10/06 06:03:44;;;;;;;2.40;2.30;;;13.60;99.90;;;;;;5084251;28;20115;-91
2023/10/06 06:06:21;;;;;;;2.35;2.25;;;13.80;99.90;;;;;;5085748;28;20048;-91
2023/10/06 06:08:51;;;;;;;2.25;2.15;;;13.80;99.90;;;;;;5069226;28;20123;-89
2023/10/06 06:11:23;;;;;;;2.28;2.17;;;13.70;99.90;;;;;;5068529;28;20047;-89
2023/10/06 06:13:57;;;;;;;2.28;2.17;;;13.80;99.90;;;;;;5069669;28;20027;-93
2023/10/06 06:16:22;;;;;;;2.20;2.10;;;13.90;99.90;;;;;;5080540;28;20047;-87
2023/10/06 06:18:57;;;;;;;2.15;2.05;;;14.10;99.90;;;;;;5088587;28;20039;-91
2023/10/06 06:21:24;;;;;;;2.10;2.00;;;14.20;99.90;;;;;;5090435;28;20116;-87
2023/10/06 06:24:06;;;;;;;2.13;2.03;;;14.00;99.90;;;;;;5071956;28;20040;-91
2023/10/06 06:26:32;;;;;;;2.20;2.10;;;14.20;99.90;;;;;;5066623;28;20039;-84
2023/10/06 06:29:08;;;;;;;2.20;2.10;;;14.20;99.90;;;;;;5089441;28;20048;-87
2023/10/06 06:31:44;;;;;;;2.13;2.03;;;14.20;99.90;;;;;;5089920;28;20047;-93
2023/10/06 06:34:22;;;;;;;2.35;2.25;;;14.40;99.90;;;;;;5073767;28;20043;-94
2023/10/06 06:36:54;;;;;;;2.05;1.95;;;14.40;99.90;;;;;;5090268;28;20062;-94
2023/10/06 06:39:21;;;;;;;2.15;2.05;;;14.30;99.90;;;;;;5089113;28;20040;-86
2023/10/06 06:41:50;;;;;;;2.25;2.15;;;14.40;99.90;;;;;;5073624;28;20096;-89
2023/10/06 06:44:25;;;;;;;2.13;2.03;;;14.40;99.90;;;;;;5072888;28;20047;-86
2023/10/06 06:46:51;;;;;;;2.05;1.95;;;14.70;99.90;;;;;;5087800;28;20412;-95
2023/10/06 06:49:17;;;;;;;2.00;1.90;;;14.50;99.90;;;;;;5071686;28;20043;-88
2023/10/06 06:51:47;;;;;;;2.03;1.92;;;14.60;99.90;;;;;;5074300;28;20545;-87
2023/10/06 06:54:15;;;;;;;2.08;1.98;;;14.70;99.90;;;;;;5072572;28;20553;-90
2023/10/06 06:57:01;;;;;;;2.13;2.03;;;14.60;99.90;;;;;;5090384;28;20091;-89
2023/10/06 06:59:33;;;;;;;2.10;2.00;;;14.70;99.90;;;;;;5072118;28;20050;-95
2023/10/06 07:01:59;;;;;;;2.17;2.08;;;14.70;99.90;;;;;;5074545;28;20562;-91
2023/10/06 07:04:29;;;;;;;1.90;1.80;;;14.60;99.90;;;;;;5088135;28;20044;-87
2023/10/06 07:06:58;;;;;;;1.98;1.88;;;14.80;99.90;;;;;;5071740;28;20112;-87
2023/10/06 07:09:29;;;;;;;1.95;1.85;;;14.90;99.90;;;;;;5091590;28;20039;-91
2023/10/06 07:11:55;;;;;;;2.10;2.00;;;15.00;99.90;;;;;;5068099;28;20067;-83
2023/10/06 07:14:29;;;;;;;1.90;1.80;;;15.10;99.90;;;;;;5090989;28;20492;-92
2023/10/06 07:17:07;;;;;;;2.00;1.90;;;15.10;99.90;;;;;;5088713;28;20097;-93
2023/10/06 07:20:03;;;;;;;1.98;1.88;;;15.10;99.90;;;;;;5069464;28;20069;-95
2023/10/06 07:23:00;;;;;;;2.00;1.90;;;15.20;99.90;;;;;;5039346;28;20047;-83
2023/10/06 07:25:29;;;;;;;2.10;2.00;;;15.20;99.90;;;;;;5042233;28;20104;-87
2023/10/06 07:27:57;;;;;;;1.95;1.85;;;15.20;99.90;;;;;;5086373;28;20069;-86
2023/10/06 07:30:28;;;;;;;1.95;1.85;;;15.30;99.90;;;;;;5069988;28;20127;-85
2023/10/06 07:32:54;;;;;;;1.90;1.80;;;15.30;99.90;;;;;;5087505;28;20051;-87
2023/10/06 07:35:47;;;;;;;1.85;1.75;;;15.30;99.90;;;;;;5088308;28;20043;-86
2023/10/06 07:38:18;;;;;;;1.90;1.80;;;15.30;99.90;;;;;;5069342;28;20054;-82
2023/10/06 07:40:47;;;;;;;2.05;1.95;;;15.20;99.90;;;;;;5088861;28;20051;-94
2023/10/06 07:43:17;;;;;;;2.05;1.95;;;15.20;99.90;;;;;;5071810;28;20523;-85
2023/10/06 07:45:49;;;;;;;1.90;1.80;;;15.20;99.90;;;;;;5086563;28;20139;-94
2023/10/06 07:48:18;;;;;;;1.98;1.88;;;15.30;99.90;;;;;;5087369;28;20817;-88
2023/10/06 07:50:44;;;;;;;2.00;1.90;;;15.30;99.90;;;;;;5104705;28;20112;-84
2023/10/06 07:53:35;;;;;;;2.00;1.90;;;15.40;99.90;;;;;;5075237;28;20210;-90
2023/10/06 07:56:11;;;;;;;1.98;1.88;;;15.40;99.90;;;;;;5063140;28;20047;-90
2023/10/06 07:58:38;;;;;;;1.85;1.75;;;15.50;99.90;;;;;;5090502;28;20050;-90
2023/10/06 08:01:08;;;;;;;1.88;1.77;;;15.50;99.90;;;;;;5092378;28;20127;-91
2023/10/06 08:03:46;;;;;;;1.88;1.77;;;15.60;99.90;;;;;;5065655;28;20047;-83
2023/10/06 08:06:13;;;;;;;1.92;1.83;;;15.60;99.90;;;;;;5086366;28;20167;-83
2023/10/06 08:08:41;;;;;;;1.80;1.70;;;15.80;99.90;;;;;;5077342;28;20047;-83
2023/10/06 08:11:08;;;;;;;1.80;1.70;;;15.80;99.90;;;;;;5086380;28;20224;-86
2023/10/06 08:13:44;;;;;;;1.73;1.63;;;15.90;99.90;;;;;;5088354;28;20527;-88
2023/10/06 08:16:16;;;;;;;1.70;1.60;;;15.90;99.90;;;;;;5088641;28;20504;-85
2023/10/06 08:18:42;;;;;;;1.77;1.67;;;15.90;99.90;;;;;;5087699;28;20723;-86
2023/10/06 08:21:28;;;;;;;1.83;1.73;;;15.80;99.90;;;;;;5073225;28;20052;-86
2023/10/06 08:23:54;;;;;;;1.75;1.65;;;15.90;99.90;;;;;;5086631;28;20046;-88
2023/10/06 08:26:20;;;;;;;1.80;1.70;;;15.90;99.90;;;;;;5072098;28;20174;-87
2023/10/06 08:28:46;;;;;;;1.80;1.70;;;15.80;99.90;;;;;;5091765;28;20039;-93
2023/10/06 08:31:22;;;;;;;1.88;1.77;;;15.80;99.90;;;;;;5090402;28;20052;-88
2023/10/06 08:34:01;;;;;;;1.88;1.77;;;15.80;99.90;;;;;;5071814;28;20054;-93
2023/10/06 08:36:37;;;;;;;1.77;1.67;;;15.90;99.90;;;;;;5089872;28;20052;-93
2023/10/06 08:39:13;;;;;;;1.75;1.65;;;15.90;99.90;;;;;;5075896;28;20073;-88
2023/10/06 08:41:45;;;;;;;1.85;1.75;;;16.00;99.90;;;;;;5090993;28;20055;-89
2023/10/06 08:44:36;;;;;;;1.70;1.60;;;15.90;99.90;;;;;;5086065;28;20055;-92
2023/10/06 08:47:13;;;;;;;1.83;1.73;;;15.90;99.90;;;;;;5090609;28;20061;-91
2023/10/06 08:49:49;;;;;;;1.73;1.63;;;16.00;99.90;;;;;;5088915;28;20550;-85
2023/10/06 08:52:28;;;;;;;1.77;1.67;;;16.10;99.90;;;;;;5090274;28;20136;-91
2023/10/06 08:54:59;;;;;;;1.73;1.63;;;16.30;99.90;;;;;;5090004;28;20365;-93
2023/10/06 08:57:31;;;;;;;1.70;1.60;;;16.40;99.90;;;;;;5092955;28;20405;-92
2023/10/06 09:00:07;;;;;;;1.67;1.58;;;16.50;99.90;;;;;;5073645;28;20047;-87
2023/10/06 09:03:07;;;;;;;1.60;1.50;;;16.60;99.90;;;;;;5072585;28;20071;-90
2023/10/06 09:06:27;;;;;;;1.63;1.52;;;16.80;99.90;;;;;;5059695;28;20044;-89
2023/10/06 09:08:53;;;;;;;1.70;1.60;;;16.90;99.90;;;;;;5088291;28;20062;-88
2023/10/06 09:14:57;;;;;;;1.80;1.70;;;16.60;99.90;;;;;;5090243;28;20056;-90
2023/10/06 09:20:54;;;;;;;1.75;1.65;;;16.80;99.90;;;;;;5087807;28;20089;-90
2023/10/06 09:24:03;;;;;;;1.75;1.65;;;16.70;99.90;;;;;;5094237;28;20097;-89
2023/10/06 09:26:31;;;;;;;1.67;1.58;;;16.60;99.90;;;;;;5082748;28;20066;-87
2023/10/06 09:29:01;;;;;;;1.40;1.35;;;16.60;99.90;;;;;;5092927;28;20043;-90
2023/10/06 09:31:45;;;;;;;1.55;1.45;;;16.60;99.90;;;;;;5093083;28;20502;-95
2023/10/06 09:34:11;;;;;;;1.60;1.50;;;16.50;99.90;;;;;;5089355;28;20138;-93
2023/10/06 09:36:43;;;;;;;1.13;1.13;;;16.40;99.90;;;;;;5070385;28;20619;-93
2023/10/06 09:39:14;;;;;;;1.35;1.30;;;16.50;99.90;;;;;;5074300;28;20055;-91
2023/10/06 09:41:42;;;;;;;1.50;1.40;;;16.60;99.90;;;;;;5076506;28;20058;-89
2023/10/06 09:44:11;;;;;;;1.27;1.27;;;16.50;99.90;;;;;;5090809;28;20039;-90
2023/10/06 09:46:43;;;;;;;1.17;1.17;;;16.60;99.90;;;;;;5072760;28;20046;-90
2023/10/06 09:49:16;;;;;;;1.58;1.48;;;16.70;99.90;;;;;;5087761;28;20047;-88
2023/10/06 09:51:42;;;;;;;1.27;1.27;;;17.20;99.90;;;;;;5069787;28;20079;-86
2023/10/06 09:54:12;;;;;;;1.05;1.05;;;17.90;99.90;;;;;;5067712;28;20756;-86
2023/10/06 09:56:54;;;;;;;1.23;1.23;;;17.90;99.90;;;;;;5090202;28;20044;-91
2023/10/06 09:59:33;;;;;;;1.02;1.02;;;17.70;99.90;;;;;;5092356;28;20043;-89
2023/10/06 10:02:03;;;;;;;1.15;1.15;;;17.60;99.90;;;;;;5074140;28;20054;-88
2023/10/06 10:04:35;;;;;;;1.15;1.15;;;17.50;99.90;;;;;;5070908;28;20051;-87
2023/10/06 10:07:02;;;;;;;1.15;1.15;;;17.70;99.90;;;;;;5087537;28;20096;-86
2023/10/06 10:09:34;;;;;;;1.13;1.13;;;17.90;99.90;;;;;;5075121;28;20118;-95
2023/10/06 10:12:27;;;;;;;1.02;1.02;;;18.10;99.90;;;;;;5073607;28;20047;-90
2023/10/06 10:15:50;;;;;;;1.15;1.15;;;18.20;99.90;;;;;;5071441;28;20048;-93
2023/10/06 10:18:16;;;;;;;1.30;1.30;;;18.10;99.90;;;;;;5044206;28;20086;-85
2023/10/06 10:20:46;;;;;;;1.27;1.27;;;18.20;99.90;;;;;;5089318;28;20417;-86
2023/10/06 10:23:21;;;;;;;1.30;1.30;;;18.20;99.90;;;;;;5069923;28;20411;-93
2023/10/06 10:25:47;;;;;;;1.27;1.27;;;18.70;99.90;;;;;;5086535;28;20043;-85
2023/10/06 10:28:20;;;;;;;1.05;1.05;;;19.20;99.90;;;;;;5087800;28;20063;-87
2023/10/06 10:30:56;;;;;;;1.17;1.17;;;19.30;99.90;;;;;;5089438;28;20048;-86
2023/10/06 10:33:29;;;;;;;1.25;1.25;;;19.60;99.90;;;;;;5085276;28;20043;-80
2023/10/06 10:36:20;;;;;;;1.25;1.25;;;19.40;99.90;;;;;;5087197;28;20044;-84
2023/10/06 10:39:22;;;;;;;1.13;1.13;;;19.60;99.90;;;;;;5088384;28;20047;-90
2023/10/06 10:42:04;;;;;;;1.10;1.10;;;19.80;99.90;;;;;;4968342;28;20045;-93
2023/10/06 10:44:30;;;;;;;1.00;1.00;;;19.60;99.90;;;;;;5065824;28;20078;-91
2023/10/06 10:47:20;;;;;;;1.00;1.00;;;19.40;99.90;;;;;;5114474;27;20081;-88
2023/10/06 10:49:55;;;;;;;1.45;1.40;;;19.60;99.90;;;;;;5103001;27;20031;-86
2023/10/06 10:52:23;;;;;;;1.30;1.30;;;20.20;99.90;;;;;;5104079;27;20044;-87
2023/10/06 10:54:51;;;;;;;1.45;1.38;;;20.30;99.90;;;;;;5117664;27;20683;-84
2023/10/06 10:57:27;;;;;;;1.02;1.02;;;20.20;99.90;;;;;;5112270;27;20055;-93
2023/10/06 11:02:42;;;;;;;1.00;1.00;;;20.00;99.90;;;;;;5112358;27;20083;-86
2023/10/06 11:05:09;;;;;;;0.95;0.95;;;20.10;99.90;;;;;;5113718;27;20047;-86
2023/10/06 11:07:56;;;;;;;0.93;0.93;;;20.50;99.90;;;;;;5094838;27;20039;-91
2023/10/06 11:10:32;;;;;;;1.15;1.15;;;20.80;99.90;;;;;;5096073;28;20047;-90
2023/10/06 11:13:15;;;;;;;1.15;1.15;;;21.10;99.90;;;;;;5100885;27;20046;-85
2023/10/06 11:16:23;;;;;;;;;;;;;;;;;;;;;
2023/10/06 11:18:52;;;;;;;1.80;1.70;;;20.70;99.90;;;;;;5106718;27;20040;-93
2023/10/06 11:21:27;;;;;;;1.48;1.40;;;20.50;99.90;;;;;;5107669;28;20134;-88
2023/10/06 11:24:05;;;;;;;1.30;1.30;;;20.50;99.90;;;;;;5113376;27;20063;-92
2023/10/06 11:26:30;;;;;;;1.40;1.38;;;20.40;99.90;;;;;;5109631;27;20049;-89
2023/10/06 11:29:00;;;;;;;1.25;1.25;;;20.20;99.90;;;;;;5109621;27;20040;-84
2023/10/06 11:31:30;;;;;;;1.40;1.35;;;19.90;99.90;;;;;;5107015;28;20050;-84
2023/10/06 11:33:58;;;;;;;1.60;1.52;;;19.70;99.90;;;;;;5107921;28;20400;-87
2023/10/06 11:36:24;;;;;;;1.17;1.17;;;19.60;99.90;;;;;;5089742;28;20040;-85
2023/10/06 11:38:50;;;;;;;1.33;1.30;;;19.50;99.90;;;;;;5101344;28;20074;-87
2023/10/06 11:41:23;;;;;;;1.30;1.27;;;19.50;99.90;;;;;;5112642;28;20050;-86
2023/10/06 11:43:55;;;;;;;1.17;1.17;;;19.30;99.90;;;;;;5094806;28;20154;-81
2023/10/06 11:46:27;;;;;;;1.13;1.13;;;19.30;99.90;;;;;;5101853;28;20044;-88
2023/10/06 11:49:19;;;;;;;1.05;1.05;;;19.20;99.90;;;;;;5106656;28;20047;-93
2023/10/06 11:51:51;;;;;;;1.10;1.10;;;19.20;99.90;;;;;;5062142;28;20139;-90
2023/10/06 11:54:22;;;;;;;1.15;1.15;;;19.20;99.90;;;;;;5086861;28;20043;-84
2023/10/06 11:59:50;;;;;;;1.15;1.15;;;19.10;99.90;;;;;;5085713;28;20459;-84
2023/10/06 12:02:16;;;;;;;1.10;1.10;;;19.20;99.90;;;;;;5091685;28;20055;-88
2023/10/06 12:04:45;;;;;;;1.27;1.17;;;19.30;99.90;;;;;;5097263;28;20048;-92
2023/10/06 12:07:23;;;;;;;1.00;1.00;;;19.40;99.90;;;;;;5102296;28;20050;-95
2023/10/06 12:09:53;;;;;;;1.10;1.10;;;19.40;99.90;;;;;;5110535;28;20400;-81
2023/10/06 12:12:23;;;;;;;1.08;1.08;;;19.50;99.90;;;;;;5106354;28;20048;-82
2023/10/06 12:14:56;;;;;;;1.02;1.02;;;19.70;99.90;;;;;;5112093;28;20508;-89
2023/10/06 12:17:27;;;;;;;1.00;1.00;;;19.90;99.90;;;;;;5104758;28;20090;-83
2023/10/06 12:20:26;;;;;;;1.10;1.10;;;20.00;99.90;;;;;;5094856;28;20734;-90
2023/10/06 12:22:53;;;;;;;1.10;1.10;;;20.20;99.90;;;;;;5115932;28;20084;-87
2023/10/06 12:25:32;;;;;;;1.02;1.02;;;20.30;99.90;;;;;;5110664;28;20054;-87
2023/10/06 12:28:00;;;;;;;1.02;1.02;;;20.20;99.90;;;;;;5104848;28;20036;-87
2023/10/06 12:33:31;;;;;;;1.27;1.27;;;19.90;99.90;;;;;;5110966;28;20047;-91
2023/10/06 12:36:18;;;;;;;1.20;1.20;;;19.90;99.90;;;;;;5087716;28;20055;-91
2023/10/06 12:39:04;;;;;;;1.15;1.15;;;19.80;99.90;;;;;;5108007;27;20040;-94
2023/10/06 12:41:35;;;;;;;1.30;1.27;;;19.70;99.90;;;;;;5090789;27;20127;-91
2023/10/06 12:44:07;;;;;;;1.15;1.15;;;19.70;99.90;;;;;;5107794;27;20044;-89
2023/10/06 12:46:40;;;;;;;1.25;1.25;;;19.70;99.90;;;;;;5109312;27;20043;-91
2023/10/06 12:49:18;;;;;;;1.13;1.13;;;19.70;99.90;;;;;;5095970;27;20031;-89
2023/10/06 12:51:50;;;;;;;1.17;1.17;;;19.70;99.90;;;;;;5113781;27;20047;-90
2023/10/06 12:54:16;;;;;;;1.17;1.17;;;19.90;99.90;;;;;;5090577;28;20083;-79
2023/10/06 12:56:46;;;;;;;1.15;1.15;;;20.10;99.90;;;;;;5112702;27;20560;-89
2023/10/06 12:59:15;;;;;;;1.13;1.13;;;20.50;99.90;;;;;;5088027;28;20433;-82
2023/10/06 13:01:40;;;;;;;1.20;1.20;;;20.40;99.90;;;;;;5086496;27;20035;-84
2023/10/06 13:04:13;;;;;;;1.33;1.30;;;20.40;99.90;;;;;;5117397;27;20053;-89
2023/10/06 13:06:39;;;;;;;1.20;1.20;;;20.40;99.90;;;;;;5110097;27;20108;-86
2023/10/06 13:09:08;;;;;;;1.15;1.15;;;20.30;99.90;;;;;;5111808;27;20066;-83
2023/10/06 13:11:37;;;;;;;1.13;1.13;;;20.60;99.90;;;;;;5100628;28;20044;-88
2023/10/06 13:14:03;;;;;;;1.02;1.02;;;20.70;99.90;;;;;;5096293;27;20065;-84
2023/10/06 13:16:32;;;;;;;1.02;1.02;;;20.90;99.90;;;;;;5083048;28;20524;-91
2023/10/06 13:19:07;;;;;;;1.05;1.05;;;20.80;99.90;;;;;;5111387;27;20508;-88
2023/10/06 13:21:32;;;;;;;1.00;1.00;;;20.70;99.90;;;;;;5106720;27;20044;-88
2023/10/06 13:23:58;;;;;;;1.02;1.02;;;20.60;99.90;;;;;;5096905;28;20047;-89
2023/10/06 13:26:31;;;;;;;1.10;1.10;;;20.80;99.90;;;;;;5100021;27;20039;-85
2023/10/06 13:29:03;;;;;;;1.15;1.15;;;20.60;99.90;;;;;;5117484;27;20661;-87
2023/10/06 13:31:32;;;;;;;1.17;1.17;;;20.50;99.90;;;;;;5097542;27;20481;-89
2023/10/06 13:34:00;;;;;;;1.20;1.20;;;20.40;99.90;;;;;;5111536;27;20065;-89
2023/10/06 13:36:30;;;;;;;1.17;1.17;;;20.30;99.90;;;;;;5092650;28;20043;-89
2023/10/06 13:39:09;;;;;;;1.23;1.23;;;20.20;99.90;;;;;;5098447;27;20046;-85
2023/10/06 13:41:44;;;;;;;1.40;1.35;;;20.10;99.90;;;;;;5113484;27;20062;-88
2023/10/06 13:44:10;;;;;;;1.20;1.20;;;20.10;99.90;;;;;;5094344;28;20090;-85